createdAt,value
2022-10-13T00:00:24.149Z,101482.28
2022-10-13T00:00:48.181Z,101481.31
2022-10-13T00:01:13.471Z,101478.69
2022-10-13T00:01:35.099Z,101481.44
2022-10-13T00:01:56.656Z,101481.59
2022-10-13T00:02:19.456Z,101477.44
2022-10-13T00:02:41.308Z,101479.25
2022-10-13T00:03:03.207Z,101475.28
2022-10-13T00:03:24.797Z,101490.56
2022-10-13T00:03:48.113Z,101477.06
2022-10-13T00:04:14.536Z,101475.94
2022-10-13T00:04:36.128Z,101476.69
2022-10-13T00:04:57.715Z,101491.97
2022-10-13T00:05:20.673Z,101483.00
2022-10-13T00:05:46.388Z,101480.34
2022-10-13T00:06:10.363Z,101474.03
2022-10-13T00:06:31.975Z,101486.47
2022-10-13T00:06:53.681Z,101478.44
2022-10-13T00:07:21.753Z,101477.16
2022-10-13T00:07:44.364Z,101476.78
2022-10-13T00:08:05.952Z,101481.00
2022-10-13T00:08:38.211Z,101487.00
2022-10-13T00:09:01.389Z,101473.66
2022-10-13T00:09:23.277Z,101478.81
2022-10-13T00:09:44.829Z,101476.88
2022-10-13T00:10:07.062Z,101482.16
2022-10-13T00:10:29.004Z,101482.91
2022-10-13T00:10:52.359Z,101475.22
2022-10-13T00:11:21.356Z,101475.44
2022-10-13T00:11:42.942Z,101468.25
2022-10-13T00:12:04.818Z,101477.19
2022-10-13T00:12:27.604Z,101481.66
2022-10-13T00:12:49.570Z,101478.06
2022-10-13T00:13:11.313Z,101485.22
2022-10-13T00:13:32.900Z,101482.41
2022-10-13T00:13:58.725Z,101483.28
2022-10-13T00:14:22.424Z,101480.41
2022-10-13T00:14:44.290Z,101481.13
2022-10-13T00:15:08.416Z,101480.19
2022-10-13T00:15:29.998Z,101486.19
2022-10-13T00:15:52.905Z,101488.03
2022-10-13T00:16:19.456Z,101476.47
2022-10-13T00:16:41.138Z,101487.72
2022-10-13T00:17:02.845Z,101491.00
2022-10-13T00:17:24.452Z,101476.53
2022-10-13T00:17:48.857Z,101479.91
2022-10-13T00:18:11.511Z,101485.97
2022-10-13T00:18:33.211Z,101475.13
2022-10-13T00:18:55.099Z,101483.63
2022-10-13T00:19:17.813Z,101489.69
2022-10-13T00:19:39.420Z,101482.47
2022-10-13T00:20:01.361Z,101477.94
2022-10-13T00:20:23.089Z,101475.44
2022-10-13T00:20:46.697Z,101479.19
2022-10-13T00:21:10.822Z,101475.44
2022-10-13T00:21:33.548Z,101475.50
2022-10-13T00:21:56.269Z,101478.88
2022-10-13T00:22:18.270Z,101478.25
2022-10-13T00:22:41.492Z,101472.00
2022-10-13T00:23:03.048Z,101472.66
2022-10-13T00:23:27.198Z,101469.22
2022-10-13T00:23:51.412Z,101474.22
2022-10-13T00:24:15.158Z,101470.94
2022-10-13T00:24:36.793Z,101484.38
2022-10-13T00:24:59.272Z,101469.09
2022-10-13T00:25:21.884Z,101470.81
2022-10-13T00:25:47.689Z,101473.28
2022-10-13T00:26:11.312Z,101465.25
2022-10-13T00:26:32.890Z,101474.91
2022-10-13T00:26:56.229Z,101470.34
2022-10-13T00:27:18.803Z,101472.09
2022-10-13T00:27:40.405Z,101468.50
2022-10-13T00:28:02.492Z,101451.22
2022-10-13T00:28:26.974Z,101467.75
2022-10-13T00:28:52.459Z,101458.84
2022-10-13T00:29:14.730Z,101459.78
2022-10-13T00:29:36.322Z,101471.13
2022-10-13T00:29:57.941Z,101471.06
2022-10-13T00:30:20.499Z,101466.59
2022-10-13T00:30:43.535Z,101459.56
2022-10-13T00:31:15.067Z,101462.19
2022-10-13T00:31:38.016Z,101464.00
2022-10-13T00:32:01.905Z,101466.53
2022-10-13T00:32:23.648Z,101470.91
2022-10-13T00:32:45.246Z,101468.38
2022-10-13T00:33:07.163Z,101468.38
2022-10-13T00:33:30.004Z,101471.94
2022-10-13T00:33:52.765Z,101471.06
2022-10-13T00:34:15.363Z,101464.16
2022-10-13T00:34:38.128Z,101473.19
2022-10-13T00:34:59.754Z,101468.69
2022-10-13T00:35:21.349Z,101466.03
2022-10-13T00:36:00.050Z,101468.69
2022-10-13T00:36:24.098Z,101468.97
2022-10-13T00:36:45.881Z,101470.84
2022-10-13T00:37:08.429Z,101463.63
2022-10-13T00:37:30.385Z,101468.88
2022-10-13T00:37:53.304Z,101469.75
2022-10-13T00:38:17.009Z,101462.66
2022-10-13T00:38:38.857Z,101468.84
2022-10-13T00:39:00.695Z,101463.53
2022-10-13T00:39:22.323Z,101469.94
2022-10-13T00:39:45.020Z,101467.22
2022-10-13T00:40:08.657Z,101465.28
2022-10-13T00:40:30.477Z,101456.56
2022-10-13T00:40:56.280Z,101471.84
2022-10-13T00:41:18.417Z,101464.53
2022-10-13T00:41:40.324Z,101460.81
2022-10-13T00:42:02.055Z,101458.94
2022-10-13T00:42:26.307Z,101461.78
2022-10-13T00:42:48.214Z,101465.16
2022-10-13T00:43:16.885Z,101463.31
2022-10-13T00:44:01.019Z,101459.81
2022-10-13T00:45:01.406Z,101461.03
2022-10-13T00:45:25.505Z,101458.41
2022-10-13T00:45:49.975Z,101461.03
2022-10-13T00:46:11.686Z,101464.53
2022-10-13T00:46:34.767Z,101461.78
2022-10-13T00:46:59.212Z,101469.75
2022-10-13T00:47:21.740Z,101469.09
2022-10-13T00:47:47.054Z,101465.34
2022-10-13T00:48:09.154Z,101465.28
2022-10-13T00:48:32.287Z,101470.59
2022-10-13T00:48:55.627Z,101459.94
2022-10-13T00:49:17.510Z,101469.75
2022-10-13T00:49:41.318Z,101470.81
2022-10-13T00:50:05.077Z,101465.50
2022-10-13T00:50:33.524Z,101463.66
2022-10-13T00:50:58.681Z,101459.00
2022-10-13T00:51:25.338Z,101469.63
2022-10-13T00:51:50.446Z,101464.19
2022-10-13T00:52:15.193Z,101467.59
2022-10-13T00:52:39.297Z,101469.22
2022-10-13T00:53:03.959Z,101465.63
2022-10-13T00:53:31.703Z,101464.75
2022-10-13T00:53:54.708Z,101458.38
2022-10-13T00:54:23.312Z,101453.94
2022-10-13T00:54:45.952Z,101466.34
2022-10-13T00:55:11.248Z,101458.28
2022-10-13T00:55:37.181Z,101461.00
2022-10-13T00:56:00.505Z,101459.25
2022-10-13T00:56:25.849Z,101460.94
2022-10-13T00:56:48.975Z,101462.63
2022-10-13T00:59:48.010Z,101464.47
2022-10-13T00:59:48.980Z,101474.56
2022-10-13T01:00:12.296Z,101454.22
2022-10-13T01:00:35.594Z,101460.28
2022-10-13T01:01:02.536Z,101460.28
2022-10-13T01:03:26.594Z,101456.56
2022-10-13T01:03:43.509Z,101447.09
2022-10-13T01:04:08.374Z,101413.13
2022-10-13T01:04:33.455Z,101449.56
2022-10-13T01:04:58.307Z,101460.13
2022-10-13T01:05:22.396Z,101458.41
2022-10-13T01:05:45.023Z,101464.72
2022-10-13T01:06:08.263Z,101460.28
2022-10-13T01:06:30.568Z,101464.75
2022-10-13T01:06:54.645Z,101461.16
2022-10-13T01:07:18.804Z,101446.16
2022-10-13T01:07:40.647Z,101462.19
2022-10-13T01:08:02.937Z,101464.75
2022-10-13T01:08:26.999Z,101460.28
2022-10-13T01:08:52.095Z,101454.44
2022-10-13T01:09:14.097Z,101455.16
2022-10-13T01:09:37.937Z,101450.69
2022-10-13T01:10:02.848Z,101450.88
2022-10-13T01:10:35.063Z,101450.81
2022-10-13T01:11:07.369Z,101455.78
2022-10-13T01:11:53.137Z,101446.69
2022-10-13T01:12:30.517Z,101441.47
2022-10-13T01:13:01.304Z,101449.22
2022-10-13T01:13:29.505Z,101445.97
2022-10-13T01:14:06.979Z,101444.66
2022-10-13T01:14:36.476Z,101442.44
2022-10-13T01:15:07.816Z,101439.25
2022-10-13T01:15:37.323Z,101453.44
2022-10-13T01:16:05.992Z,101445.09
2022-10-13T01:16:35.936Z,101441.25
2022-10-13T01:17:05.173Z,101448.69
2022-10-13T01:17:33.168Z,101440.56
2022-10-13T01:18:05.604Z,101440.94
2022-10-13T01:18:37.146Z,101440.13
2022-10-13T01:19:10.199Z,101439.09
2022-10-13T01:19:52.093Z,101434.41
2022-10-13T01:20:51.885Z,101438.72
2022-10-13T01:21:26.702Z,101428.84
2022-10-13T01:21:58.033Z,101439.03
2022-10-13T01:22:39.693Z,101432.88
2022-10-13T01:23:19.540Z,101432.28
2022-10-13T01:24:07.983Z,101422.91
2022-10-13T01:24:43.915Z,101426.31
2022-10-13T01:25:21.168Z,101430.84
2022-10-13T01:26:05.148Z,101425.06
2022-10-13T01:26:42.801Z,101423.00
2022-10-13T01:27:14.015Z,101429.06
2022-10-13T01:27:55.007Z,101419.78
2022-10-13T01:28:38.278Z,101419.78
2022-10-13T01:29:14.664Z,101417.78
2022-10-13T01:30:22.766Z,101420.28
2022-10-13T01:30:48.857Z,101419.69
2022-10-13T01:31:19.716Z,101414.34
2022-10-13T01:31:47.264Z,101414.47
2022-10-13T01:32:15.775Z,101417.88
2022-10-13T01:33:12.714Z,101415.25
2022-10-13T01:33:43.873Z,101415.19
2022-10-13T01:34:12.538Z,101408.91
2022-10-13T01:34:42.725Z,101403.97
2022-10-13T01:35:10.117Z,101414.53
2022-10-13T01:35:42.507Z,101418.72
2022-10-13T01:36:13.390Z,101405.81
2022-10-13T01:36:43.799Z,101412.81
2022-10-13T01:37:17.574Z,101407.34
2022-10-13T01:37:47.403Z,101409.78
2022-10-13T01:38:16.311Z,101404.66
2022-10-13T01:38:48.853Z,101405.41
2022-10-13T01:39:23.245Z,101409.88
2022-10-13T01:39:54.039Z,101394.97
2022-10-13T01:40:23.471Z,101403.41
2022-10-13T01:40:51.613Z,101392.78
2022-10-13T01:41:19.646Z,101402.28
2022-10-13T01:41:46.530Z,101412.06
2022-10-13T01:42:15.384Z,101404.97
2022-10-13T01:42:43.297Z,101419.91
2022-10-13T01:43:14.362Z,101404.88
2022-10-13T01:43:40.177Z,101405.91
2022-10-13T01:44:12.497Z,101405.84
2022-10-13T01:44:39.944Z,101408.63
2022-10-13T01:45:03.478Z,101413.09
2022-10-13T01:45:33.013Z,101404.34
2022-10-13T01:46:00.575Z,101407.88
2022-10-13T01:46:26.789Z,101396.25
2022-10-13T01:46:52.504Z,101403.34
2022-10-13T01:47:17.886Z,101414.84
2022-10-13T01:47:42.450Z,101411.25
2022-10-13T01:48:06.019Z,101411.19
2022-10-13T01:48:37.287Z,101399.63
2022-10-13T01:49:02.140Z,101408.59
2022-10-13T01:49:27.105Z,101410.25
2022-10-13T01:49:50.706Z,101406.72
2022-10-13T01:50:16.885Z,101403.13
2022-10-13T01:50:39.722Z,101406.72
2022-10-13T01:51:01.931Z,101404.16
2022-10-13T01:51:27.216Z,101409.56
2022-10-13T01:51:51.692Z,101403.25
2022-10-13T01:52:17.635Z,101411.25
2022-10-13T01:52:40.863Z,101405.84
2022-10-13T01:53:05.429Z,101404.13
2022-10-13T01:53:29.900Z,101406.00
2022-10-13T01:53:52.058Z,101400.06
2022-10-13T01:54:13.950Z,101406.94
2022-10-13T01:54:37.009Z,101409.56
2022-10-13T01:55:06.382Z,101403.28
2022-10-13T01:55:29.141Z,101404.13
2022-10-13T01:55:52.549Z,101403.41
2022-10-13T01:56:15.827Z,101398.31
2022-10-13T01:56:39.345Z,101402.72
2022-10-13T01:57:01.076Z,101406.13
2022-10-13T01:57:33.512Z,101405.22
2022-10-13T01:57:56.830Z,101402.47
2022-10-13T01:58:18.831Z,101394.72
2022-10-13T01:58:40.792Z,101409.84
2022-10-13T01:59:08.433Z,101403.66
2022-10-13T01:59:36.030Z,101401.84
2022-10-13T01:59:58.355Z,101397.38
2022-10-13T02:00:22.810Z,101402.59
2022-10-13T02:00:56.172Z,101400.97
2022-10-13T02:01:46.345Z,101400.75
2022-10-13T02:02:19.267Z,101398.91
2022-10-13T02:02:52.038Z,101382.28
2022-10-13T02:03:22.429Z,101401.59
2022-10-13T02:03:52.917Z,101402.53
2022-10-13T02:04:26.036Z,101398.06
2022-10-13T02:04:57.549Z,101396.25
2022-10-13T02:05:28.789Z,101391.91
2022-10-13T02:06:01.093Z,101396.41
2022-10-13T02:06:40.467Z,101395.53
2022-10-13T02:07:10.138Z,101398.16
2022-10-13T02:07:38.005Z,101399.88
2022-10-13T02:08:05.231Z,101398.22
2022-10-13T02:08:35.758Z,101391.03
2022-10-13T02:09:03.209Z,101392.72
2022-10-13T02:09:32.037Z,101388.41
2022-10-13T02:09:59.002Z,101389.50
2022-10-13T02:10:26.410Z,101385.97
2022-10-13T02:10:52.764Z,101385.84
2022-10-13T02:11:17.460Z,101388.50
2022-10-13T02:11:46.111Z,101395.53
2022-10-13T02:12:13.491Z,101381.41
2022-10-13T02:12:39.869Z,101397.19
2022-10-13T02:13:04.475Z,101385.56
2022-10-13T02:13:29.438Z,101391.16
2022-10-13T02:13:57.593Z,101381.34
2022-10-13T02:14:24.665Z,101392.22
2022-10-13T02:14:49.114Z,101384.25
2022-10-13T02:15:16.001Z,101384.38
2022-10-13T02:15:43.482Z,101380.91
2022-10-13T02:16:07.134Z,101392.28
2022-10-13T02:16:35.137Z,101393.19
2022-10-13T02:17:00.296Z,101386.88
2022-10-13T02:17:22.376Z,101389.63
2022-10-13T02:17:44.450Z,101379.97
2022-10-13T02:18:09.609Z,101384.38
2022-10-13T02:18:33.713Z,101384.28
2022-10-13T02:18:57.126Z,101384.03
2022-10-13T02:19:19.414Z,101384.97
2022-10-13T02:19:42.160Z,101391.06
2022-10-13T02:20:06.648Z,101383.38
2022-10-13T02:20:31.851Z,101390.28
2022-10-13T02:20:54.746Z,101381.41
2022-10-13T02:21:17.415Z,101381.47
2022-10-13T02:21:41.649Z,101379.72
2022-10-13T02:22:05.322Z,101380.34
2022-10-13T02:22:33.621Z,101383.88
2022-10-13T02:23:02.293Z,101380.34
2022-10-13T02:23:24.444Z,101382.13
2022-10-13T02:23:46.347Z,101383.84
2022-10-13T02:24:09.283Z,101355.72
2022-10-13T02:24:31.232Z,101361.13
2022-10-13T02:24:54.305Z,101386.38
2022-10-13T02:25:15.991Z,101376.78
2022-10-13T02:25:37.934Z,101377.41
2022-10-13T02:26:00.588Z,101380.13
2022-10-13T02:26:23.196Z,101381.03
2022-10-13T02:26:55.934Z,101374.03
2022-10-13T02:27:17.853Z,101380.13
2022-10-13T02:27:40.094Z,101383.75
2022-10-13T02:28:03.848Z,101382.75
2022-10-13T02:28:27.908Z,101374.72
2022-10-13T02:28:49.671Z,101379.06
2022-10-13T02:29:13.538Z,101369.53
2022-10-13T02:29:49.422Z,101376.69
2022-10-13T02:30:22.271Z,101378.25
2022-10-13T02:30:45.620Z,101384.47
2022-10-13T02:31:10.525Z,101379.06
2022-10-13T02:31:32.161Z,101387.09
2022-10-13T02:31:54.781Z,101381.75
2022-10-13T02:32:16.718Z,101383.66
2022-10-13T02:32:39.784Z,101384.59
2022-10-13T02:33:02.335Z,101378.25
2022-10-13T02:33:24.273Z,101381.78
2022-10-13T02:33:46.075Z,101382.75
2022-10-13T02:34:08.708Z,101373.84
2022-10-13T02:34:31.654Z,101377.22
2022-10-13T02:34:53.345Z,101386.13
2022-10-13T02:35:15.295Z,101376.25
2022-10-13T02:35:36.954Z,101374.66
2022-10-13T02:35:59.881Z,101377.09
2022-10-13T02:36:21.489Z,101378.03
2022-10-13T02:36:43.187Z,101381.56
2022-10-13T02:37:05.878Z,101384.28
2022-10-13T02:37:28.556Z,101372.97
2022-10-13T02:37:50.137Z,101375.56
2022-10-13T02:38:11.857Z,101383.44
2022-10-13T02:38:33.519Z,101378.94
2022-10-13T02:38:56.365Z,101375.47
2022-10-13T02:39:18.206Z,101382.44
2022-10-13T02:39:39.975Z,101387.75
2022-10-13T02:40:07.557Z,101383.38
2022-10-13T02:40:30.458Z,101379.78
2022-10-13T02:40:52.047Z,101374.38
2022-10-13T02:41:17.148Z,101374.44
2022-10-13T02:41:39.219Z,101375.25
2022-10-13T02:42:00.885Z,101384.97
2022-10-13T02:42:23.831Z,101382.31
2022-10-13T02:42:50.683Z,101387.75
2022-10-13T02:43:12.562Z,101382.25
2022-10-13T02:43:37.799Z,101378.66
2022-10-13T02:44:00.622Z,101382.25
2022-10-13T02:44:29.119Z,101381.34
2022-10-13T02:44:50.867Z,101376.16
2022-10-13T02:45:13.607Z,101384.81
2022-10-13T02:45:35.371Z,101387.47
2022-10-13T02:45:57.217Z,101376.78
2022-10-13T02:46:20.160Z,101386.56
2022-10-13T02:46:42.815Z,101390.09
2022-10-13T02:47:04.574Z,101389.22
2022-10-13T02:47:26.269Z,101385.69
2022-10-13T02:47:47.949Z,101374.38
2022-10-13T02:48:09.692Z,101387.59
2022-10-13T02:48:32.355Z,101380.69
2022-10-13T02:48:54.009Z,101386.72
2022-10-13T02:49:15.752Z,101385.84
2022-10-13T02:49:37.459Z,101390.25
2022-10-13T02:49:59.165Z,101387.47
2022-10-13T02:50:21.872Z,101384.81
2022-10-13T02:50:46.477Z,101382.31
2022-10-13T02:51:08.137Z,101384.75
2022-10-13T02:51:30.007Z,101381.28
2022-10-13T02:51:51.768Z,101388.31
2022-10-13T02:52:14.393Z,101388.34
2022-10-13T02:52:37.043Z,101380.00
2022-10-13T02:52:58.745Z,101392.03
2022-10-13T02:53:20.485Z,101381.63
2022-10-13T02:53:43.085Z,101386.94
2022-10-13T02:54:04.725Z,101386.88
2022-10-13T02:54:26.435Z,101383.06
2022-10-13T02:54:48.321Z,101384.81
2022-10-13T02:55:11.371Z,101387.31
2022-10-13T02:55:33.228Z,101383.66
2022-10-13T02:55:54.878Z,101378.25
2022-10-13T02:56:16.505Z,101380.81
2022-10-13T02:56:39.045Z,101391.59
2022-10-13T02:57:00.792Z,101395.94
2022-10-13T02:57:22.582Z,101386.97
2022-10-13T02:57:44.410Z,101384.13
2022-10-13T02:58:07.050Z,101378.94
2022-10-13T02:58:29.062Z,101382.41
2022-10-13T02:58:50.679Z,101381.53
2022-10-13T02:59:13.478Z,101390.25
2022-10-13T02:59:35.292Z,101387.66
2022-10-13T02:59:57.096Z,101384.88
2022-10-13T03:00:19.899Z,101386.66
2022-10-13T03:00:42.725Z,101379.78
2022-10-13T03:01:08.211Z,101376.88
2022-10-13T03:01:31.416Z,101385.69
2022-10-13T03:01:53.088Z,101391.13
2022-10-13T03:02:15.776Z,101386.56
2022-10-13T03:02:37.488Z,101385.69
2022-10-13T03:02:59.772Z,101388.25
2022-10-13T03:03:21.480Z,101387.44
2022-10-13T03:03:45.108Z,101387.44
2022-10-13T03:04:06.876Z,101387.75
2022-10-13T03:04:28.896Z,101383.19
2022-10-13T03:04:52.303Z,101388.44
2022-10-13T03:05:14.960Z,101389.22
2022-10-13T03:05:36.672Z,101388.31
2022-10-13T03:05:58.376Z,101385.69
2022-10-13T03:06:21.400Z,101390.97
2022-10-13T03:06:43.421Z,101385.63
2022-10-13T03:07:08.867Z,101379.41
2022-10-13T03:07:30.814Z,101388.25
2022-10-13T03:07:52.550Z,101380.28
2022-10-13T03:08:15.435Z,101374.19
2022-10-13T03:08:40.304Z,101389.00
2022-10-13T03:09:02.108Z,101380.13
2022-10-13T03:09:23.899Z,101386.38
2022-10-13T03:09:46.722Z,101384.59
2022-10-13T03:10:08.744Z,101382.78
2022-10-13T03:10:31.128Z,101379.19
2022-10-13T03:10:53.009Z,101382.69
2022-10-13T03:11:15.004Z,101381.00
2022-10-13T03:11:36.953Z,101380.06
2022-10-13T03:11:59.928Z,101375.59
2022-10-13T03:12:22.040Z,101387.16
2022-10-13T03:12:44.065Z,101378.28
2022-10-13T03:13:07.161Z,101379.31
2022-10-13T03:13:29.103Z,101380.03
2022-10-13T03:13:55.717Z,101378.19
2022-10-13T03:14:17.816Z,101373.78
2022-10-13T03:14:40.547Z,101375.50
2022-10-13T03:15:02.287Z,101373.72
2022-10-13T03:15:24.036Z,101377.34
2022-10-13T03:15:50.411Z,101372.75
2022-10-13T03:16:13.214Z,101366.56
2022-10-13T03:16:36.363Z,101375.59
2022-10-13T03:16:58.331Z,101374.72
2022-10-13T03:17:20.220Z,101373.72
2022-10-13T03:17:42.874Z,101371.03
2022-10-13T03:18:04.585Z,101372.84
2022-10-13T03:18:26.243Z,101372.97
2022-10-13T03:18:48.830Z,101374.72
2022-10-13T03:19:11.846Z,101365.00
2022-10-13T03:19:33.577Z,101372.03
2022-10-13T03:19:55.489Z,101375.78
2022-10-13T03:20:17.881Z,101369.59
2022-10-13T03:20:40.123Z,101372.28
2022-10-13T03:21:05.143Z,101369.41
2022-10-13T03:21:26.833Z,101373.88
2022-10-13T03:21:48.509Z,101374.66
2022-10-13T03:22:10.625Z,101368.44
2022-10-13T03:22:33.932Z,101357.28
2022-10-13T03:22:55.723Z,101364.31
2022-10-13T03:23:17.505Z,101363.28
2022-10-13T03:23:39.178Z,101356.28
2022-10-13T03:24:01.934Z,101365.81
2022-10-13T03:24:23.637Z,101355.50
2022-10-13T03:24:45.451Z,101365.06
2022-10-13T03:25:07.759Z,101368.69
2022-10-13T03:25:30.400Z,101364.38
2022-10-13T03:25:52.222Z,101361.63
2022-10-13T03:26:14.079Z,101365.00
2022-10-13T03:26:35.798Z,101365.81
2022-10-13T03:26:58.459Z,101358.53
2022-10-13T03:27:20.824Z,101350.88
2022-10-13T03:27:42.705Z,101365.69
2022-10-13T03:28:04.560Z,101366.53
2022-10-13T03:28:27.459Z,101363.78
2022-10-13T03:28:50.527Z,101362.91
2022-10-13T03:29:13.957Z,101367.31
2022-10-13T03:29:35.614Z,101364.78
2022-10-13T03:29:58.511Z,101344.63
2022-10-13T03:30:20.156Z,101367.56
2022-10-13T03:30:41.876Z,101359.56
2022-10-13T03:31:04.999Z,101357.94
2022-10-13T03:31:27.330Z,101360.34
2022-10-13T03:31:59.218Z,101353.19
2022-10-13T03:32:21.440Z,101355.88
2022-10-13T03:32:43.966Z,101364.63
2022-10-13T03:33:05.915Z,101361.97
2022-10-13T03:33:28.039Z,101356.69
2022-10-13T03:33:53.160Z,101361.16
2022-10-13T03:34:16.733Z,101361.97
2022-10-13T03:34:38.409Z,101350.34
2022-10-13T03:35:00.403Z,101353.03
2022-10-13T03:35:23.666Z,101351.28
2022-10-13T03:35:45.458Z,101353.09
2022-10-13T03:36:09.098Z,101352.16
2022-10-13T03:36:31.053Z,101357.44
2022-10-13T03:36:52.769Z,101351.22
2022-10-13T03:37:14.623Z,101344.44
2022-10-13T03:37:37.304Z,101359.28
2022-10-13T03:37:59.020Z,101342.50
2022-10-13T03:38:22.392Z,101349.47
2022-10-13T03:38:44.840Z,101353.03
2022-10-13T03:39:07.732Z,101353.09
2022-10-13T03:39:29.586Z,101345.13
2022-10-13T03:39:51.435Z,101347.75
2022-10-13T03:40:13.359Z,101353.94
2022-10-13T03:40:36.574Z,101353.09
2022-10-13T03:40:58.493Z,101351.44
2022-10-13T03:41:20.387Z,101341.63
2022-10-13T03:41:44.993Z,101342.47
2022-10-13T03:42:07.691Z,101346.97
2022-10-13T03:42:32.393Z,101350.47
2022-10-13T03:42:54.187Z,101333.78
2022-10-13T03:43:15.880Z,101350.53
2022-10-13T03:43:39.273Z,101342.69
2022-10-13T03:44:01.866Z,101344.25
2022-10-13T03:44:24.743Z,101338.16
2022-10-13T03:44:46.418Z,101341.63
2022-10-13T03:45:10.817Z,101346.19
2022-10-13T03:45:32.763Z,101346.09
2022-10-13T03:45:55.830Z,101342.59
2022-10-13T03:46:18.054Z,101346.97
2022-10-13T03:46:40.833Z,101317.38
2022-10-13T03:47:05.281Z,101346.94
2022-10-13T03:47:27.137Z,101334.66
2022-10-13T03:47:49.000Z,101345.13
2022-10-13T03:48:10.871Z,101339.78
2022-10-13T03:48:35.136Z,101339.84
2022-10-13T03:48:56.862Z,101338.91
2022-10-13T03:49:18.905Z,101338.97
2022-10-13T03:49:40.603Z,101348.72
2022-10-13T03:50:03.662Z,101335.41
2022-10-13T03:50:25.528Z,101348.72
2022-10-13T03:50:49.228Z,101337.16
2022-10-13T03:51:12.734Z,101339.78
2022-10-13T03:51:40.985Z,101342.47
2022-10-13T03:52:02.676Z,101340.72
2022-10-13T03:52:24.356Z,101340.75
2022-10-13T03:52:46.070Z,101337.16
2022-10-13T03:53:11.630Z,101332.00
2022-10-13T03:53:35.150Z,101338.91
2022-10-13T03:53:57.392Z,101337.13
2022-10-13T03:54:19.304Z,101337.25
2022-10-13T03:54:44.475Z,101343.44
2022-10-13T03:55:06.894Z,101336.28
2022-10-13T03:55:28.740Z,101337.16
2022-10-13T03:55:51.471Z,101338.97
2022-10-13T03:56:17.450Z,101342.47
2022-10-13T03:56:45.369Z,101338.03
2022-10-13T03:57:07.129Z,101337.13
2022-10-13T03:57:30.707Z,101330.94
2022-10-13T03:57:52.647Z,101335.31
2022-10-13T03:58:14.437Z,101333.50
2022-10-13T03:58:37.743Z,101335.50
2022-10-13T03:59:01.189Z,101340.66
2022-10-13T03:59:23.891Z,101333.56
2022-10-13T03:59:45.566Z,101325.50
2022-10-13T04:00:10.635Z,101336.25
2022-10-13T04:00:35.788Z,101337.91
2022-10-13T04:01:02.003Z,101335.41
2022-10-13T04:01:27.290Z,101332.69
2022-10-13T04:01:49.232Z,101333.75
2022-10-13T04:02:12.571Z,101339.03
2022-10-13T04:02:34.290Z,101337.25
2022-10-13T04:02:57.230Z,101332.81
2022-10-13T04:03:18.916Z,101326.66
2022-10-13T04:03:40.644Z,101335.50
2022-10-13T04:04:02.872Z,101329.38
2022-10-13T04:04:25.702Z,101331.19
2022-10-13T04:04:51.188Z,101330.25
2022-10-13T04:05:12.836Z,101334.81
2022-10-13T04:05:35.032Z,101329.63
2022-10-13T04:06:00.489Z,101335.91
2022-10-13T04:06:24.719Z,101328.06
2022-10-13T04:06:46.374Z,101335.16
2022-10-13T04:07:08.523Z,101335.16
2022-10-13T04:07:30.539Z,101319.16
2022-10-13T04:07:53.294Z,101331.44
2022-10-13T04:08:20.231Z,101335.06
2022-10-13T04:08:41.910Z,101333.22
2022-10-13T04:09:05.485Z,101335.03
2022-10-13T04:09:27.374Z,101326.09
2022-10-13T04:09:49.056Z,101340.25
2022-10-13T04:10:11.583Z,101341.13
2022-10-13T04:10:36.408Z,101334.03
2022-10-13T04:10:59.329Z,101341.13
2022-10-13T04:11:22.099Z,101335.84
2022-10-13T04:11:52.220Z,101333.97
2022-10-13T04:12:17.159Z,101336.59
2022-10-13T04:12:42.556Z,101338.25
2022-10-13T04:13:04.226Z,101334.91
2022-10-13T04:13:26.077Z,101337.66
2022-10-13T04:13:49.149Z,101331.31
2022-10-13T04:14:11.139Z,101339.28
2022-10-13T04:14:32.946Z,101347.16
2022-10-13T04:15:04.590Z,101347.25
2022-10-13T04:15:26.615Z,101347.53
2022-10-13T04:15:48.623Z,101342.88
2022-10-13T04:16:13.570Z,101340.16
2022-10-13T04:16:36.437Z,101339.22
2022-10-13T04:16:59.784Z,101338.22
2022-10-13T04:17:23.071Z,101330.25
2022-10-13T04:17:44.811Z,101336.28
2022-10-13T04:18:09.502Z,101331.75
2022-10-13T04:18:31.886Z,101332.56
2022-10-13T04:18:55.621Z,101330.16
2022-10-13T04:19:18.553Z,101331.78
2022-10-13T04:19:40.235Z,101330.28
2022-10-13T04:20:02.045Z,101326.91
2022-10-13T04:20:23.637Z,101334.63
2022-10-13T04:20:47.832Z,101337.22
2022-10-13T04:21:12.072Z,101341.84
2022-10-13T04:21:35.244Z,101333.63
2022-10-13T04:21:57.161Z,101332.81
2022-10-13T04:22:19.300Z,101334.38
2022-10-13T04:22:44.047Z,101331.47
2022-10-13T04:23:06.890Z,101334.81
2022-10-13T04:23:31.066Z,101328.41
2022-10-13T04:23:57.068Z,101334.56
2022-10-13T04:24:18.776Z,101329.22
2022-10-13T04:24:40.629Z,101325.78
2022-10-13T04:25:02.422Z,101338.91
2022-10-13T04:25:25.081Z,101331.19
2022-10-13T04:25:46.852Z,101325.72
2022-10-13T04:26:15.904Z,101326.41
2022-10-13T04:26:37.917Z,101319.63
2022-10-13T04:27:03.448Z,101325.59
2022-10-13T04:27:27.101Z,101320.16
2022-10-13T04:27:48.977Z,101315.78
2022-10-13T04:28:12.295Z,101326.28
2022-10-13T04:28:36.097Z,101326.47
2022-10-13T04:28:59.378Z,101325.53
2022-10-13T04:29:21.051Z,101322.00
2022-10-13T04:29:46.667Z,101330.00
2022-10-13T04:30:13.325Z,101332.69
2022-10-13T04:30:36.723Z,101316.78
2022-10-13T04:30:59.042Z,101323.88
2022-10-13T04:31:23.965Z,101324.63
2022-10-13T04:31:45.848Z,101317.53
2022-10-13T04:32:08.879Z,101318.53
2022-10-13T04:32:32.234Z,101318.44
2022-10-13T04:32:57.435Z,101320.16
2022-10-13T04:33:19.065Z,101324.84
2022-10-13T04:33:41.886Z,101316.78
2022-10-13T04:34:03.512Z,101324.66
2022-10-13T04:34:25.285Z,101312.50
2022-10-13T04:34:47.002Z,101331.72
2022-10-13T04:35:09.023Z,101327.34
2022-10-13T04:35:32.700Z,101326.41
2022-10-13T04:35:54.627Z,101320.94
2022-10-13T04:36:17.964Z,101321.88
2022-10-13T04:36:42.218Z,101317.53
2022-10-13T04:37:04.106Z,101300.16
2022-10-13T04:37:26.045Z,101318.41
2022-10-13T04:37:47.798Z,101322.13
2022-10-13T04:38:09.466Z,101310.66
2022-10-13T04:38:32.124Z,101319.56
2022-10-13T04:38:54.291Z,101321.13
2022-10-13T04:39:16.221Z,101314.09
2022-10-13T04:39:39.386Z,101321.06
2022-10-13T04:40:01.198Z,101313.19
2022-10-13T04:40:23.074Z,101316.47
2022-10-13T04:40:45.007Z,101320.94
2022-10-13T04:41:07.648Z,101316.41
2022-10-13T04:41:29.530Z,101297.28
2022-10-13T04:41:52.227Z,101319.03
2022-10-13T04:42:13.995Z,101321.63
2022-10-13T04:42:35.988Z,101317.28
2022-10-13T04:42:57.896Z,101318.03
2022-10-13T04:43:20.979Z,101321.53
2022-10-13T04:43:43.585Z,101315.50
2022-10-13T04:44:05.490Z,101315.31
2022-10-13T04:44:27.128Z,101319.88